Time;durP1;ratioP1;P1;durP2;ratioP2;P2;SDS_P1;SDS_P2;PMS_P1;PMS_P2;Temp;Humidity;BMP_temperature;BMP_pressure;BME280_temperature;BME280_humidity;BME280_pressure;Samples;Min_cycle;Max_cycle;Signal;HPM_P1;HPM_P2
2022/01/13 00:01:13;;;;;;;21.58;8.68;;;;;;;-9.64;100.00;100501.78;5094358;28;20776;-62
2022/01/13 00:03:59;;;;;;;19.52;9.18;;;;;;;-9.51;100.00;100500.97;5087339;28;20081;-62
2022/01/13 00:06:44;;;;;;;21.17;9.77;;;;;;;-9.43;100.00;100484.44;5096689;28;20085;-63
2022/01/13 00:09:32;;;;;;;20.25;9.60;;;;;;;-9.22;100.00;100473.94;5079769;28;20062;-64
2022/01/13 00:12:19;;;;;;;23.92;10.55;;;;;;;-9.07;100.00;100482.69;5081598;28;20124;-65
2022/01/13 00:18:49;;;;;;;27.88;10.88;;;;;;;-9.86;100.00;100493.38;4999617;28;20410;-64
2022/01/13 00:21:39;;;;;;;26.13;10.77;;;;;;;-9.57;100.00;100491.19;5015117;28;20060;-62
2022/01/13 00:24:24;;;;;;;20.02;10.18;;;;;;;-9.52;100.00;100483.78;5012146;28;20076;-64
2022/01/13 00:27:12;;;;;;;20.80;9.70;;;;;;;-9.83;100.00;100478.19;5011648;28;20049;-64
2022/01/13 00:30:00;;;;;;;26.17;12.15;;;;;;;-10.11;100.00;100492.44;4979619;28;20143;-62
2022/01/13 00:32:45;;;;;;;29.88;12.93;;;;;;;-10.62;100.00;100489.56;5014705;28;20521;-65
2022/01/13 00:35:30;;;;;;;25.30;10.70;;;;;;;-10.43;100.00;100492.72;5019127;28;20076;-65
2022/01/13 00:38:15;;;;;;;20.45;9.02;;;;;;;-10.60;100.00;100477.75;5013266;28;20138;-63
2022/01/13 00:40:59;;;;;;;17.15;7.72;;;;;;;-10.70;100.00;100466.72;5002678;28;20255;-61
2022/01/13 00:43:46;;;;;;;16.45;7.00;;;;;;;-10.75;100.00;100484.34;4998069;28;20067;-64
2022/01/13 00:46:41;;;;;;;13.98;6.57;;;;;;;-10.70;100.00;100488.13;5012508;28;20138;-63
2022/01/13 00:49:28;;;;;;;13.75;6.05;;;;;;;-10.60;100.00;100480.31;5064009;28;20063;-63
2022/01/13 00:52:13;;;;;;;15.05;5.60;;;;;;;-10.40;100.00;100474.09;5094839;28;20069;-62
2022/01/13 00:54:58;;;;;;;13.23;5.50;;;;;;;-10.65;100.00;100458.59;5076126;28;20070;-64
2022/01/13 00:57:43;;;;;;;14.90;6.88;;;;;;;-10.78;100.00;100452.47;5094030;28;20520;-63
2022/01/13 01:00:28;;;;;;;;;;;;;;;-10.97;100.00;100454.44;5066590;28;20054;-63
2022/01/13 01:03:12;;;;;;;19.05;6.65;;;;;;;-11.03;100.00;100448.88;5072438;28;19960;-63
2022/01/13 01:05:57;;;;;;;13.35;5.57;;;;;;;-10.97;100.00;100449.34;5094345;28;20101;-64
2022/01/13 01:08:43;;;;;;;15.93;5.75;;;;;;;-10.92;100.00;100446.34;5078641;28;20129;-63
2022/01/13 01:11:28;;;;;;;15.77;5.45;;;;;;;-10.63;100.00;100449.38;5078746;28;20093;-61
2022/01/13 01:14:14;;;;;;;15.50;5.72;;;;;;;-10.41;100.00;100438.97;5092583;28;20126;-64
2022/01/13 01:16:59;;;;;;;14.63;4.80;;;;;;;-10.23;100.00;100414.69;5092829;28;20652;-63
2022/01/13 01:19:47;;;;;;;;;;;;;;;-10.09;100.00;100420.78;5069025;28;20164;-64
2022/01/13 01:22:41;;;;;;;14.57;6.28;;;;;;;-10.26;100.00;100424.72;5093569;28;19976;-63
2022/01/13 01:28:20;;;;;;;13.82;5.70;;;;;;;-10.30;100.00;100393.66;5091740;28;20088;-64
2022/01/13 01:31:05;;;;;;;14.02;5.90;;;;;;;-10.46;100.00;100394.22;5077801;28;20479;-62
2022/01/13 01:34:01;;;;;;;13.15;5.25;;;;;;;-10.79;100.00;100386.69;5096922;27;20792;-61
2022/01/13 01:36:46;;;;;;;15.80;4.97;;;;;;;-10.65;100.00;100384.34;5067407;28;20065;-64
2022/01/13 01:39:31;;;;;;;14.15;5.50;;;;;;;-10.32;100.00;100367.91;5071303;28;20047;-60
2022/01/13 01:42:18;;;;;;;11.50;5.47;;;;;;;-10.03;100.00;100377.56;5066945;28;20062;-62
2022/01/13 01:45:07;;;;;;;13.32;5.20;;;;;;;-10.09;100.00;100365.28;5080761;28;20096;-62
2022/01/13 01:47:52;;;;;;;11.98;5.68;;;;;;;-10.17;100.00;100368.09;5096538;28;20054;-62
2022/01/13 01:50:38;;;;;;;;;;;;;;;-10.13;100.00;100349.56;5097654;27;20054;-64
2022/01/13 01:53:23;;;;;;;11.05;4.78;;;;;;;-10.12;100.00;100361.59;5072653;28;20015;-62
2022/01/13 01:56:09;;;;;;;12.95;5.93;;;;;;;-10.14;100.00;100364.06;5088710;28;20118;-61
2022/01/13 01:58:55;;;;;;;15.55;4.97;;;;;;;-10.01;100.00;100360.66;5065337;28;20050;-62
2022/01/13 02:01:41;;;;;;;14.07;5.75;;;;;;;-9.87;100.00;100362.47;5098132;28;20054;-63
2022/01/13 02:04:27;;;;;;;12.48;5.45;;;;;;;-9.76;100.00;100382.03;5098402;28;20078;-62
2022/01/13 02:07:13;;;;;;;10.48;5.28;;;;;;;-9.92;100.00;100374.09;5059344;28;20151;-63
2022/01/13 02:09:58;;;;;;;16.50;5.82;;;;;;;-9.91;100.00;100378.41;5077452;28;20058;-63
2022/01/13 02:12:47;;;;;;;;;;;;;;;-9.82;100.00;100369.69;5101525;28;20153;-62
2022/01/13 02:16:01;;;;;;;10.95;4.82;;;;;;;-9.64;100.00;100355.56;5067200;28;20015;-64
2022/01/13 02:18:46;;;;;;;14.98;4.72;;;;;;;-9.55;100.00;100343.34;5086768;27;20104;-66
2022/01/13 02:21:31;;;;;;;;;;;;;;;-9.36;100.00;100354.06;5083526;28;20081;-62
2022/01/13 02:24:15;;;;;;;10.18;5.05;;;;;;;-9.62;100.00;100343.72;5066578;28;20016;-62
2022/01/13 02:27:01;;;;;;;;;;;;;;;-9.64;100.00;100363.25;5095714;28;20280;-62
2022/01/13 02:29:48;;;;;;;10.18;4.30;;;;;;;-9.68;100.00;100365.50;5075999;28;20398;-64
2022/01/13 02:32:33;;;;;;;14.35;5.35;;;;;;;-9.65;100.00;100358.03;5072009;28;20051;-69
2022/01/13 02:35:17;;;;;;;11.80;5.13;;;;;;;-9.54;100.00;100344.25;5076615;27;20047;-67
2022/01/13 02:38:08;;;;;;;15.55;5.53;;;;;;;-9.43;100.00;100343.28;5076111;28;20051;-63
2022/01/13 02:40:55;;;;;;;13.85;4.95;;;;;;;-9.22;100.00;100348.13;5093090;28;20120;-67
2022/01/13 02:43:40;;;;;;;14.00;5.65;;;;;;;-9.13;100.00;100327.31;5079242;28;20058;-68
2022/01/13 02:49:22;;;;;;;10.70;5.10;;;;;;;-9.05;100.00;100308.16;5086088;27;19926;-65
2022/01/13 02:52:07;;;;;;;14.65;5.60;;;;;;;-9.30;99.90;100309.94;5096965;28;20071;-64
2022/01/13 02:54:52;;;;;;;13.32;5.57;;;;;;;-9.17;99.38;100328.81;5083887;28;20039;-63
2022/01/13 02:57:39;;;;;;;16.23;5.88;;;;;;;-9.33;99.49;100330.25;5100874;28;20202;-64
2022/01/13 03:00:24;;;;;;;12.30;6.22;;;;;;;-10.06;100.00;100338.97;5067737;27;20089;-66
2022/01/13 03:03:08;;;;;;;15.80;6.65;;;;;;;-10.16;100.00;100347.69;5083170;28;20184;-64
2022/01/13 03:05:53;;;;;;;11.23;5.75;;;;;;;-10.30;100.00;100339.84;5090517;28;20055;-65
2022/01/13 03:08:43;;;;;;;11.05;5.38;;;;;;;-10.57;100.00;100326.84;5081232;28;20058;-66
2022/01/13 03:11:33;;;;;;;11.95;5.13;;;;;;;-10.23;100.00;100340.34;5067884;28;20127;-64
2022/01/13 03:14:18;;;;;;;12.30;6.07;;;;;;;-10.50;100.00;100328.16;5080519;28;20549;-65
2022/01/13 03:17:03;;;;;;;;;;;;;;;-10.51;100.00;100341.78;5082954;28;20051;-64
2022/01/13 03:19:48;;;;;;;12.15;4.97;;;;;;;-10.77;100.00;100345.03;5088843;27;20367;-65
2022/01/13 03:22:32;;;;;;;13.85;5.43;;;;;;;-10.78;100.00;100335.59;5082356;28;20152;-64
2022/01/13 03:25:21;;;;;;;12.02;5.05;;;;;;;-10.49;100.00;100319.69;5067787;28;20117;-62
2022/01/13 03:28:14;;;;;;;12.50;5.22;;;;;;;-10.21;100.00;100331.13;5057564;28;20497;-66
2022/01/13 03:31:03;;;;;;;14.98;5.15;;;;;;;-10.03;100.00;100328.88;5071634;28;20051;-62
2022/01/13 03:33:53;;;;;;;17.73;5.68;;;;;;;-9.93;100.00;100321.94;5090435;27;20054;-63
2022/01/13 03:36:37;;;;;;;13.18;5.18;;;;;;;-10.31;100.00;100321.00;5126984;27;20045;-60
2022/01/13 03:39:22;;;;;;;15.55;6.38;;;;;;;-10.34;100.00;100307.97;5101086;27;20108;-64
2022/01/13 03:42:07;;;;;;;13.95;5.70;;;;;;;-10.50;100.00;100302.56;5081325;28;20067;-62
2022/01/13 03:44:51;;;;;;;;;;;;;;;-10.20;100.00;100285.84;5081804;28;20135;-63
2022/01/13 03:47:36;;;;;;;13.30;5.55;;;;;;;-10.08;100.00;100271.31;5101848;27;19943;-62
2022/01/13 03:50:21;;;;;;;11.07;4.97;;;;;;;-9.79;100.00;100249.38;5095333;28;20105;-63
2022/01/13 03:53:29;;;;;;;17.38;6.53;;;;;;;-9.77;100.00;100232.41;5096140;28;20556;-62
2022/01/13 03:56:43;;;;;;;12.32;5.63;;;;;;;-9.62;100.00;100238.53;5095139;28;20093;-67
2022/01/13 03:59:57;;;;;;;11.25;5.30;;;;;;;-9.57;100.00;100232.03;5016544;28;20080;-68
2022/01/13 04:02:42;;;;;;;15.32;5.88;;;;;;;-9.41;100.00;100228.78;4995125;28;20053;-64
2022/01/13 04:05:27;;;;;;;15.27;5.93;;;;;;;-9.32;100.00;100207.16;5009316;28;20102;-74
2022/01/13 04:08:12;;;;;;;19.23;6.45;;;;;;;-9.37;100.00;100187.13;5001017;28;20075;-70
2022/01/13 04:11:06;;;;;;;13.85;5.65;;;;;;;-9.67;100.00;100192.84;5011639;28;20524;-65
2022/01/13 04:14:01;;;;;;;14.45;5.78;;;;;;;-9.58;100.00;100175.50;5012558;28;20052;-71
2022/01/13 04:16:46;;;;;;;13.55;5.15;;;;;;;-9.50;100.00;100174.31;5013822;28;20457;-69
2022/01/13 04:19:31;;;;;;;15.27;5.97;;;;;;;-9.53;100.00;100156.16;5002104;28;20140;-73
2022/01/13 04:22:18;;;;;;;16.65;6.00;;;;;;;-9.60;100.00;100133.44;4984343;28;20061;-73
2022/01/13 04:25:04;;;;;;;24.63;7.47;;;;;;;-9.95;100.00;100133.75;5002256;28;20223;-70
2022/01/13 04:27:49;;;;;;;25.08;7.53;;;;;;;-9.90;100.00;100122.09;4979432;28;20123;-72
2022/01/13 04:33:34;;;;;;;21.08;5.70;;;;;;;-10.73;100.00;100149.88;5012687;28;20124;-64
2022/01/13 04:36:19;;;;;;;15.30;6.70;;;;;;;-11.04;100.00;100163.03;5068709;28;20063;-64
2022/01/13 04:39:06;;;;;;;19.25;7.43;;;;;;;-11.47;100.00;100169.31;5073235;28;20427;-67
2022/01/13 04:41:52;;;;;;;22.23;8.45;;;;;;;-11.83;100.00;100148.81;5094453;28;20054;-64
2022/01/13 04:44:37;;;;;;;50.88;17.48;;;;;;;-11.79;100.00;100155.06;5071280;28;20054;-63
2022/01/13 04:47:21;;;;;;;42.03;15.63;;;;;;;-11.80;100.00;100130.25;5106426;28;20070;-64
2022/01/13 04:50:06;;;;;;;30.92;11.60;;;;;;;-11.63;100.00;100132.38;5075854;28;20096;-64
2022/01/13 04:52:51;;;;;;;23.77;8.95;;;;;;;-11.78;100.00;100155.16;5090945;28;20112;-64
2022/01/13 04:55:37;;;;;;;52.65;19.45;;;;;;;-11.56;100.00;100154.97;5107470;28;20102;-64
2022/01/13 04:58:23;;;;;;;21.75;8.52;;;;;;;-11.67;100.00;100140.59;5081462;28;20529;-65
2022/01/13 05:01:08;;;;;;;22.40;8.27;;;;;;;-11.92;100.00;100140.50;5087493;28;20054;-62
2022/01/13 05:03:53;;;;;;;21.02;7.13;;;;;;;-11.61;100.00;100107.78;5088730;28;20053;-64
2022/01/13 05:06:38;;;;;;;23.08;7.78;;;;;;;-11.80;100.00;100120.94;5101295;27;20061;-66
2022/01/13 05:09:22;;;;;;;19.00;6.78;;;;;;;-11.77;100.00;100141.59;5102288;28;20054;-65
2022/01/13 05:12:07;;;;;;;17.73;7.18;;;;;;;-11.78;100.00;100144.94;5091876;28;20565;-64
2022/01/13 05:14:57;;;;;;;19.15;7.00;;;;;;;-12.00;100.00;100133.94;5088124;28;20070;-66
2022/01/13 05:20:39;;;;;;;24.42;9.07;;;;;;;-12.19;100.00;100107.81;5109062;27;20043;-61
2022/01/13 05:23:24;;;;;;;22.38;8.30;;;;;;;-11.69;100.00;100094.47;5089060;28;20089;-63
2022/01/13 05:26:10;;;;;;;25.77;8.88;;;;;;;-11.72;100.00;100088.22;5088755;28;20105;-59
2022/01/13 05:28:55;;;;;;;23.20;9.10;;;;;;;-12.04;100.00;100090.16;5101037;28;20471;-67
2022/01/13 05:31:39;;;;;;;;;;;;;;;-12.37;100.00;100085.16;5112001;28;20051;-61
2022/01/13 05:34:24;;;;;;;21.58;7.60;;;;;;;-12.71;100.00;100074.13;5107095;27;20011;-66
2022/01/13 05:37:09;;;;;;;18.05;6.75;;;;;;;-12.72;100.00;100062.13;5113752;27;20156;-59
2022/01/13 05:39:53;;;;;;;21.83;7.72;;;;;;;-12.84;100.00;100068.88;5114534;27;20525;-62
2022/01/13 05:42:39;;;;;;;17.83;7.00;;;;;;;-12.61;100.00;100063.84;5093173;28;20067;-57
2022/01/13 05:45:29;;;;;;;18.42;6.78;;;;;;;-12.17;100.00;100067.06;5107101;28;20076;-65
2022/01/13 05:48:13;;;;;;;17.38;7.38;;;;;;;-12.69;100.00;100041.06;5092519;28;20050;-61
2022/01/13 05:50:59;;;;;;;24.80;7.65;;;;;;;-12.99;100.00;100026.06;5112022;27;20470;-60
2022/01/13 05:53:45;;;;;;;20.02;6.72;;;;;;;-12.41;100.00;100037.19;5098403;28;20083;-67
2022/01/13 05:56:30;;;;;;;27.40;8.23;;;;;;;-12.72;100.00;100010.19;5088560;28;20055;-64
2022/01/13 05:59:16;;;;;;;;;;;;;;;-12.95;100.00;100002.50;5092905;28;20074;-66
2022/01/13 06:02:00;;;;;;;22.70;7.03;;;;;;;-13.45;100.00;100008.97;5090158;28;20408;-63
2022/01/13 06:04:45;;;;;;;15.68;6.18;;;;;;;-13.60;100.00;99989.97;5098666;27;20427;-62
2022/01/13 06:07:29;;;;;;;25.33;8.23;;;;;;;-13.72;100.00;100000.88;5128442;27;20050;-63
2022/01/13 06:10:19;;;;;;;21.00;7.28;;;;;;;-13.27;100.00;100004.34;5107707;27;20058;-62
2022/01/13 06:13:04;;;;;;;18.00;6.80;;;;;;;-12.92;100.00;99996.00;5078805;28;20054;-62
2022/01/13 06:15:48;;;;;;;31.30;9.35;;;;;;;-13.07;100.00;100009.28;5090558;28;20398;-61
2022/01/13 06:18:33;;;;;;;19.58;8.25;;;;;;;-13.39;100.00;100018.72;5071254;28;20097;-61
2022/01/13 06:21:17;;;;;;;21.63;7.72;;;;;;;-13.68;100.00;100020.72;5122558;27;20054;-62
2022/01/13 06:24:02;;;;;;;17.95;6.70;;;;;;;-13.92;100.00;100016.28;5088207;27;20097;-64
2022/01/13 06:26:47;;;;;;;21.27;7.27;;;;;;;-13.75;100.00;100024.44;5087976;28;20043;-63
2022/01/13 06:29:33;;;;;;;14.03;5.30;;;;;;;-13.83;100.00;100035.72;5074196;28;20050;-64
2022/01/13 06:32:18;;;;;;;16.60;5.47;;;;;;;-13.39;100.00;100023.81;5110160;27;20167;-64
2022/01/13 06:35:03;;;;;;;17.70;6.27;;;;;;;-13.40;100.00;100025.50;5110406;27;20153;-64
2022/01/13 06:37:48;;;;;;;15.77;6.20;;;;;;;-13.98;100.00;100020.91;5082736;28;20055;-64
2022/01/13 06:40:34;;;;;;;15.98;6.30;;;;;;;-13.87;100.00;100020.97;5058809;28;20102;-75
2022/01/13 06:43:18;;;;;;;19.43;6.67;;;;;;;-13.73;100.00;100011.84;5085340;27;20077;-65
2022/01/13 06:46:04;;;;;;;20.67;6.63;;;;;;;-14.17;100.00;99998.19;5105536;27;20046;-63
2022/01/13 06:48:50;;;;;;;19.90;6.30;;;;;;;-13.96;100.00;100010.06;5087873;27;20070;-65
2022/01/13 06:51:35;;;;;;;18.33;6.90;;;;;;;-13.67;100.00;99977.53;5127485;27;20069;-64
2022/01/13 06:54:19;;;;;;;21.70;6.50;;;;;;;-13.75;100.00;99981.13;5099551;28;20111;-66
2022/01/13 06:57:04;;;;;;;16.30;7.07;;;;;;;-13.93;100.00;99966.97;5107743;28;20092;-62
2022/01/13 06:59:49;;;;;;;14.63;6.20;;;;;;;-14.03;100.00;99959.41;5078979;28;20124;-64
2022/01/13 07:02:35;;;;;;;16.98;6.18;;;;;;;-14.06;100.00;99938.78;5087477;28;20583;-64
2022/01/13 07:05:19;;;;;;;26.43;7.53;;;;;;;-14.31;100.00;99944.44;5103238;27;20054;-64
2022/01/13 07:08:05;;;;;;;22.77;8.45;;;;;;;-14.34;100.00;99945.09;5120368;27;20054;-67
2022/01/13 07:10:50;;;;;;;24.70;10.03;;;;;;;-13.78;100.00;99952.88;5056495;28;20051;-64
2022/01/13 07:13:35;;;;;;;20.45;7.63;;;;;;;-13.84;100.00;99939.69;5086215;28;20492;-64
2022/01/13 07:16:21;;;;;;;15.07;6.07;;;;;;;-13.44;100.00;99930.81;5070935;28;20519;-63
2022/01/13 07:19:09;;;;;;;19.47;7.13;;;;;;;-13.57;100.00;99925.59;5089534;27;20055;-64
2022/01/13 07:21:54;;;;;;;19.23;6.77;;;;;;;-13.81;100.00;99942.44;5097729;27;20050;-68
2022/01/13 07:24:38;;;;;;;18.02;6.57;;;;;;;-13.57;100.00;99908.63;5092626;28;20051;-67
2022/01/13 07:27:23;;;;;;;17.90;7.25;;;;;;;-13.58;100.00;99919.59;5086220;27;20046;-64
2022/01/13 07:30:08;;;;;;;;;;;;;;;-14.00;100.00;99923.09;5109546;27;20054;-64
2022/01/13 07:32:53;;;;;;;;;;;;;;;-14.15;100.00;99921.91;5072425;28;19953;-63
2022/01/13 07:35:38;;;;;;;16.43;7.10;;;;;;;-14.32;100.00;99895.22;5068205;28;19927;-60
2022/01/13 07:38:22;;;;;;;20.80;7.45;;;;;;;-13.90;100.00;99902.69;5098452;27;20054;-61
2022/01/13 07:41:07;;;;;;;19.37;6.97;;;;;;;-13.98;100.00;99883.38;5077176;28;20093;-61
2022/01/13 07:43:54;;;;;;;20.50;7.05;;;;;;;-14.04;100.00;99870.16;5067106;28;20054;-63
2022/01/13 07:46:39;;;;;;;18.40;6.83;;;;;;;-13.88;100.00;99879.09;5095228;28;20143;-64
2022/01/13 07:49:25;;;;;;;20.85;7.65;;;;;;;-13.50;100.00;99859.88;5106827;27;20054;-71
2022/01/13 07:52:09;;;;;;;13.67;5.57;;;;;;;-13.44;100.00;99839.06;5126745;27;20129;-64
2022/01/13 07:54:54;;;;;;;13.05;4.97;;;;;;;-13.91;100.00;99850.84;5095236;27;20521;-67
2022/01/13 07:57:40;;;;;;;20.17;7.13;;;;;;;-13.67;100.00;99856.84;5084799;28;20411;-65
2022/01/13 08:00:24;;;;;;;19.73;6.93;;;;;;;-12.55;100.00;99846.41;5082172;28;20042;-66
2022/01/13 08:03:09;;;;;;;19.20;6.57;;;;;;;-10.89;100.00;99838.94;5094267;28;20046;-64
2022/01/13 08:05:58;;;;;;;18.40;7.63;;;;;;;-9.98;100.00;99828.47;5082236;28;20596;-63
2022/01/13 08:08:45;;;;;;;21.13;7.32;;;;;;;-9.33;100.00;99823.00;5068174;28;20126;-63
2022/01/13 08:11:30;;;;;;;16.95;5.15;;;;;;;-9.61;100.00;99814.50;5094741;28;20682;-63
2022/01/13 08:14:14;;;;;;;17.52;7.18;;;;;;;-8.89;100.00;99802.38;5079155;28;20231;-66
2022/01/13 08:17:01;;;;;;;15.00;6.72;;;;;;;-8.49;100.00;99790.94;5063311;28;20501;-65
2022/01/13 08:19:45;;;;;;;14.10;6.32;;;;;;;-7.68;95.93;99787.53;5086986;28;20057;-67
2022/01/13 08:22:30;;;;;;;;;;;;;;;-7.90;96.02;99771.81;5077334;28;20058;-63
2022/01/13 08:25:17;;;;;;;16.37;6.87;;;;;;;-8.67;93.19;99762.56;5077681;28;20511;-65
2022/01/13 08:28:04;;;;;;;15.35;6.32;;;;;;;-8.71;91.38;99750.34;5093152;28;20327;-64
2022/01/13 08:30:49;;;;;;;14.20;6.07;;;;;;;-8.03;92.12;99754.84;5066075;28;20077;-62
2022/01/13 08:33:34;;;;;;;14.05;5.78;;;;;;;-7.68;90.08;99742.09;5090153;28;20473;-62
2022/01/13 08:36:19;;;;;;;17.17;6.30;;;;;;;-7.57;86.14;99733.22;5102776;28;20167;-66
2022/01/13 08:39:03;;;;;;;13.20;5.97;;;;;;;-8.01;84.36;99727.53;5095831;28;20074;-73
2022/01/13 08:41:50;;;;;;;17.35;7.43;;;;;;;-9.11;87.17;99704.44;5061299;28;20144;-68
2022/01/13 08:44:35;;;;;;;13.85;6.18;;;;;;;-8.77;88.07;99702.91;5109040;28;20077;-73
2022/01/13 08:47:20;;;;;;;;;;;;;;;-8.08;88.87;99694.56;5089108;28;20096;-69
2022/01/13 08:50:07;;;;;;;13.18;6.20;;;;;;;-7.56;85.98;99678.34;5067203;27;20366;-68
2022/01/13 08:52:53;;;;;;;15.40;6.70;;;;;;;-6.89;81.56;99652.41;5097705;27;20100;-64
2022/01/13 08:55:38;;;;;;;13.15;6.20;;;;;;;-6.10;77.81;99618.13;5083553;28;20188;-65
2022/01/13 08:58:23;;;;;;;12.05;5.25;;;;;;;-7.75;76.60;99611.34;5090054;28;20150;-65
2022/01/13 09:01:09;;;;;;;14.00;6.00;;;;;;;-8.70;80.28;99605.69;5073502;28;20100;-65
2022/01/13 09:03:54;;;;;;;16.92;5.85;;;;;;;-9.48;84.14;99592.84;5087523;28;20121;-70
2022/01/13 09:06:40;;;;;;;17.48;6.50;;;;;;;-9.07;86.64;99601.13;5101001;27;20054;-66
2022/01/13 09:09:25;;;;;;;;;;;;;;;-9.05;88.55;99605.53;5100588;28;20050;-67
2022/01/13 09:12:10;;;;;;;21.10;7.30;;;;;;;-8.99;89.38;99587.00;5095033;28;19922;-65
2022/01/13 09:15:02;;;;;;;13.45;5.65;;;;;;;-9.23;90.46;99572.88;5093971;28;20519;-68
2022/01/13 09:17:51;;;;;;;16.38;6.32;;;;;;;-9.43;91.67;99558.09;5119849;27;20050;-65
2022/01/13 09:20:42;;;;;;;16.67;6.20;;;;;;;-9.37;93.51;99572.13;5081204;28;20303;-65
2022/01/13 09:23:29;;;;;;;14.98;5.35;;;;;;;-9.15;93.52;99528.81;5078518;28;20526;-64
2022/01/13 09:26:14;;;;;;;12.88;4.90;;;;;;;-9.25;93.51;99530.84;5074485;28;20104;-64
2022/01/13 09:28:58;;;;;;;;;;;;;;;-8.85;92.88;99556.09;5073041;28;20067;-66
2022/01/13 09:31:44;;;;;;;14.43;5.35;;;;;;;-8.70;94.01;99554.31;5059973;28;20325;-65
2022/01/13 09:34:29;;;;;;;13.98;5.38;;;;;;;-8.00;91.75;99549.25;5074023;27;20086;-64
2022/01/13 09:37:16;;;;;;;11.18;5.90;;;;;;;-8.19;90.95;99548.31;5096866;28;20475;-64
2022/01/13 09:40:04;;;;;;;12.48;5.70;;;;;;;-7.27;89.34;99549.34;5089605;28;20066;-64
2022/01/13 09:42:50;;;;;;;12.80;5.97;;;;;;;-7.27;85.29;99554.50;5089853;28;20154;-65
2022/01/13 09:45:36;;;;;;;13.40;5.40;;;;;;;-8.07;86.15;99526.63;5072051;28;20101;-63
2022/01/13 09:48:22;;;;;;;14.27;5.72;;;;;;;-9.03;88.88;99514.06;5095814;28;20104;-63
2022/01/13 09:51:08;;;;;;;14.32;6.22;;;;;;;-9.06;91.61;99508.75;5107648;27;20046;-66
2022/01/13 09:53:53;;;;;;;13.63;5.72;;;;;;;-8.86;92.48;99492.72;5075303;28;20054;-65
2022/01/13 09:56:38;;;;;;;13.25;5.45;;;;;;;-9.14;93.22;99486.94;5099266;28;20043;-63
2022/01/13 09:59:24;;;;;;;12.85;5.70;;;;;;;-9.49;96.04;99499.63;5083486;28;20042;-67
2022/01/13 10:02:10;;;;;;;15.38;5.80;;;;;;;-9.83;96.95;99480.66;5098851;28;20047;-63
2022/01/13 10:04:56;;;;;;;10.52;5.00;;;;;;;-10.10;100.00;99476.63;5090749;27;20750;-73
2022/01/13 10:07:49;;;;;;;12.63;5.63;;;;;;;-10.14;100.00;99443.94;5089955;28;20148;-66
2022/01/13 10:10:34;;;;;;;15.23;5.63;;;;;;;-10.20;100.00;99450.41;5097771;28;20584;-64
2022/01/13 10:13:39;;;;;;;10.18;4.65;;;;;;;-10.70;100.00;99435.69;5071532;27;20128;-67
2022/01/13 10:16:28;;;;;;;11.27;3.97;;;;;;;-10.68;100.00;99413.59;5101107;27;20051;-60
2022/01/13 10:19:37;;;;;;;11.57;4.78;;;;;;;-10.91;100.00;99413.97;5088803;28;20039;-64
2022/01/13 10:22:30;;;;;;;13.70;4.90;;;;;;;-10.85;100.00;99404.09;5094796;27;20101;-64
2022/01/13 10:25:36;;;;;;;13.15;4.25;;;;;;;-10.95;100.00;99375.34;5082726;28;20135;-65
2022/01/13 10:28:23;;;;;;;9.60;4.03;;;;;;;-10.88;100.00;99365.53;5097377;27;20526;-65
2022/01/13 10:31:10;;;;;;;10.23;4.75;;;;;;;-10.85;100.00;99341.78;5092012;27;20054;-67
2022/01/13 10:33:57;;;;;;;13.27;5.43;;;;;;;-10.81;100.00;99328.34;5078585;28;20043;-67
2022/01/13 10:37:06;;;;;;;9.00;4.35;;;;;;;-10.72;100.00;99309.25;5099894;27;20049;-70
2022/01/13 10:40:00;;;;;;;12.32;4.53;;;;;;;-10.96;100.00;99294.25;5084908;28;20042;-76
2022/01/13 10:45:42;;;;;;;8.80;3.53;;;;;;;-10.78;100.00;99272.22;5091272;28;20050;-65
2022/01/13 10:48:30;;;;;;;8.52;3.13;;;;;;;-10.65;100.00;99270.41;5093372;28;20117;-67
2022/01/13 10:51:24;;;;;;;10.18;3.83;;;;;;;-10.78;100.00;99260.31;5071897;27;21015;-66
2022/01/13 10:54:24;;;;;;;7.43;3.25;;;;;;;-10.58;100.00;99249.44;5088230;28;20447;-67
2022/01/13 10:57:17;;;;;;;8.80;3.40;;;;;;;-10.70;100.00;99233.44;5085928;28;20523;-71
2022/01/13 11:00:06;;;;;;;6.60;2.58;;;;;;;-10.82;100.00;99219.97;5082551;28;20109;-66
2022/01/13 11:03:05;;;;;;;7.93;3.35;;;;;;;-10.57;100.00;99217.03;5099003;28;20054;-66
2022/01/13 11:06:00;;;;;;;6.32;2.88;;;;;;;-10.57;100.00;99199.97;5071474;28;20119;-66
2022/01/13 11:08:48;;;;;;;6.90;2.97;;;;;;;-10.27;100.00;99189.56;5083141;28;20069;-67
2022/01/13 11:11:35;;;;;;;7.15;2.47;;;;;;;-10.35;100.00;99166.13;5074261;28;20069;-65
2022/01/13 11:14:26;;;;;;;9.27;3.15;;;;;;;-10.53;100.00;99163.50;5080930;28;20529;-65
2022/01/13 11:17:12;;;;;;;7.45;2.92;;;;;;;-10.20;100.00;99145.50;5088311;28;20055;-67
2022/01/13 11:19:57;;;;;;;7.68;2.75;;;;;;;-10.24;100.00;99138.47;5095326;27;20791;-72
2022/01/13 11:22:44;;;;;;;7.95;2.83;;;;;;;-10.32;100.00;99115.06;5077924;28;20071;-64
2022/01/13 11:25:29;;;;;;;7.60;2.70;;;;;;;-10.43;100.00;99118.75;5076995;28;20132;-67
2022/01/13 11:28:15;;;;;;;5.63;2.25;;;;;;;-10.36;100.00;99111.44;5071941;28;20146;-65
2022/01/13 11:31:00;;;;;;;7.78;3.28;;;;;;;-10.44;100.00;99073.47;5077800;28;20051;-66
2022/01/13 11:33:45;;;;;;;7.00;2.50;;;;;;;-10.35;100.00;99066.22;5083704;28;20058;-67
2022/01/13 11:36:30;;;;;;;4.97;2.05;;;;;;;-10.34;100.00;99052.59;5091671;27;20077;-67
2022/01/13 11:39:16;;;;;;;6.60;2.88;;;;;;;-10.26;100.00;99038.47;5063079;28;20652;-67
2022/01/13 11:42:11;;;;;;;6.10;2.70;;;;;;;-10.08;100.00;99047.06;5068328;28;20465;-73
2022/01/13 11:45:13;;;;;;;7.88;2.90;;;;;;;-9.82;100.00;99012.38;5081558;28;20063;-70
2022/01/13 11:48:26;;;;;;;8.18;2.67;;;;;;;-9.99;100.00;98996.22;5072645;28;20408;-68
2022/01/13 11:51:17;;;;;;;7.95;2.78;;;;;;;-9.88;100.00;98971.06;5084049;28;20461;-74
2022/01/13 11:54:04;;;;;;;7.90;3.47;;;;;;;-9.82;100.00;98963.69;5068458;28;20046;-65
2022/01/13 11:57:27;;;;;;;13.13;3.33;;;;;;;-9.84;100.00;98944.75;5076435;28;20597;-65
2022/01/13 12:00:25;;;;;;;14.52;4.07;;;;;;;-9.82;100.00;98949.16;5079817;28;20049;-66
2022/01/13 12:03:28;;;;;;;13.65;3.95;;;;;;;-9.83;100.00;98990.97;5082449;28;20097;-59
2022/01/13 12:06:33;;;;;;;6.97;3.70;;;;;;;-9.77;100.00;98968.22;5095222;28;20080;-62
2022/01/13 12:09:21;;;;;;;6.07;3.05;;;;;;;-9.77;100.00;98947.69;5074032;28;20058;-62
2022/01/13 12:12:08;;;;;;;9.10;3.05;;;;;;;-9.82;100.00;98940.59;5102089;28;20910;-64
2022/01/13 12:15:26;;;;;;;9.07;3.33;;;;;;;-9.79;100.00;98922.78;5061793;28;20073;-63
2022/01/13 12:18:12;;;;;;;10.57;4.72;;;;;;;-9.92;100.00;98905.97;5078697;28;20100;-68
2022/01/13 12:21:19;;;;;;;8.07;3.25;;;;;;;-9.96;100.00;98898.97;5081708;28;20132;-69
2022/01/13 12:24:07;;;;;;;14.05;2.97;;;;;;;-9.94;100.00;98886.22;5076521;28;20082;-64
2022/01/13 12:26:56;;;;;;;8.40;3.28;;;;;;;-9.99;100.00;98856.91;5069795;28;20134;-64
2022/01/13 12:30:12;;;;;;;11.73;3.35;;;;;;;-9.81;100.00;98868.00;5071462;28;20092;-67
2022/01/13 12:32:59;;;;;;;10.00;3.63;;;;;;;-9.92;100.00;98854.72;5073926;28;20093;-70
2022/01/13 12:35:44;;;;;;;7.28;2.45;;;;;;;-9.96;100.00;98839.13;5092882;28;20052;-66
2022/01/13 12:38:29;;;;;;;7.22;3.60;;;;;;;-9.94;100.00;98832.41;5088290;28;20128;-65
2022/01/13 12:41:25;;;;;;;;;;;;;;;-9.94;100.00;98838.38;5056303;28;20053;-72
2022/01/13 12:45:27;;;;;;;7.85;2.95;;;;;;;-9.73;100.00;98813.69;5050535;28;19985;-64
2022/01/13 12:47:18;;;;;;;10.15;3.25;;;;;;;-9.82;100.00;98790.22;5042480;28;20055;-66
2022/01/13 12:50:18;;;;;;;8.73;3.80;;;;;;;-9.71;100.00;98783.84;5054037;28;20115;-65
2022/01/13 12:53:25;;;;;;;14.55;3.80;;;;;;;-9.67;100.00;98795.09;5016404;28;20044;-67
2022/01/13 12:56:13;;;;;;;8.65;3.25;;;;;;;-9.57;100.00;98805.84;5056394;28;20098;-67
2022/01/13 12:59:06;;;;;;;8.68;4.40;;;;;;;-9.60;100.00;98792.00;5053270;28;20043;-67
2022/01/13 13:01:59;;;;;;;10.32;3.38;;;;;;;-9.48;100.00;98772.00;5038869;28;20056;-66
2022/01/13 13:04:46;;;;;;;7.70;3.03;;;;;;;-9.36;100.00;98747.72;5038308;28;20048;-67
2022/01/13 13:07:32;;;;;;;8.65;3.53;;;;;;;-9.37;100.00;98753.69;5054745;28;20185;-69